createdAt,value
2019-01-31T00:01:52.160Z,50.83
2019-01-31T00:04:52.757Z,50.07
2019-01-31T00:07:52.611Z,50.90
2019-01-31T00:10:56.326Z,52.17
2019-01-31T00:13:54.296Z,52.47
2019-01-31T00:16:35.965Z,50.97
2019-01-31T00:19:29.791Z,52.07
2019-01-31T00:22:55.353Z,50.23
2019-01-31T00:25:53.532Z,49.40
2019-01-31T00:28:58.241Z,46.23
2019-01-31T00:31:36.308Z,46.87
2019-01-31T00:34:55.575Z,48.33
2019-01-31T00:37:51.576Z,47.40
2019-01-31T00:40:28.534Z,48.67
2019-01-31T00:43:13.888Z,46.90
2019-01-31T00:46:17.964Z,50.73
2019-01-31T00:49:10.780Z,47.27
2019-01-31T00:52:18.475Z,47.07
2019-01-31T00:55:44.285Z,43.93
2019-01-31T00:58:36.562Z,47.27
2019-01-31T01:01:56.951Z,45.90
2019-01-31T01:05:04.973Z,45.43
2019-01-31T01:08:05.551Z,42.10
2019-01-31T01:10:54.815Z,41.43
2019-01-31T01:14:07.897Z,44.23
2019-01-31T01:17:05.776Z,42.13
2019-01-31T01:19:49.378Z,43.40
2019-01-31T01:22:55.629Z,44.10
2019-01-31T01:26:17.226Z,43.00
2019-01-31T01:29:19.618Z,41.73
2019-01-31T01:32:39.194Z,42.87
2019-01-31T01:36:17.326Z,40.57
2019-01-31T01:39:19.194Z,44.17
2019-01-31T01:42:17.247Z,40.23
2019-01-31T01:45:43.123Z,41.83
2019-01-31T01:48:24.750Z,39.47
2019-01-31T01:51:31.256Z,36.73
2019-01-31T01:54:29.126Z,35.40
2019-01-31T01:57:24.914Z,37.17
2019-01-31T02:00:51.046Z,36.17
2019-01-31T02:03:57.213Z,36.80
2019-01-31T02:07:34.727Z,38.90
2019-01-31T02:10:39.379Z,38.37
2019-01-31T02:13:58.888Z,38.40
2019-01-31T02:17:05.117Z,38.43
2019-01-31T02:20:26.737Z,39.77
2019-01-31T02:23:42.840Z,41.70
2019-01-31T02:27:11.446Z,41.07
2019-01-31T02:30:23.701Z,43.33
2019-01-31T02:33:15.552Z,43.93
2019-01-31T02:36:05.183Z,44.53
2019-01-31T02:39:21.756Z,43.50
2019-01-31T02:42:38.036Z,45.53
2019-01-31T02:45:37.618Z,48.00
2019-01-31T02:48:52.148Z,47.63
2019-01-31T02:51:50.300Z,47.23
2019-01-31T02:54:35.588Z,48.37
2019-01-31T02:57:43.314Z,45.23
2019-01-31T03:00:38.380Z,42.27
2019-01-31T03:03:42.836Z,43.87
2019-01-31T03:06:56.165Z,46.17
2019-01-31T03:09:54.345Z,47.13
2019-01-31T03:12:39.425Z,47.13
2019-01-31T03:15:24.967Z,45.77
2019-01-31T03:18:29.018Z,45.13
2019-01-31T03:21:17.422Z,43.53
2019-01-31T03:24:26.588Z,48.00
2019-01-31T03:27:38.761Z,40.60
2019-01-31T03:31:00.026Z,44.67
2019-01-31T03:34:16.796Z,36.50
2019-01-31T03:37:22.411Z,38.17
2019-01-31T03:40:18.436Z,40.00
2019-01-31T03:43:16.002Z,41.13
2019-01-31T03:46:23.646Z,43.40
2019-01-31T03:49:28.057Z,40.23
2019-01-31T03:52:47.594Z,43.87
2019-01-31T03:55:46.501Z,39.93
2019-01-31T03:58:49.601Z,43.13
2019-01-31T04:02:12.099Z,40.17
2019-01-31T04:05:05.391Z,39.37
2019-01-31T04:07:34.920Z,33.83
2019-01-31T04:10:05.266Z,33.50
2019-01-31T04:12:34.771Z,40.13
2019-01-31T04:15:04.802Z,34.17
2019-01-31T04:17:34.449Z,34.50
2019-01-31T04:20:04.289Z,38.47
2019-01-31T04:22:33.756Z,35.67
2019-01-31T04:25:03.301Z,37.60
2019-01-31T04:27:32.816Z,39.23
2019-01-31T04:30:02.335Z,37.50
2019-01-31T04:32:31.819Z,38.87
2019-01-31T04:35:01.346Z,38.50
2019-01-31T04:37:30.855Z,39.60
2019-01-31T04:40:00.460Z,40.30
2019-01-31T04:42:30.011Z,39.40
2019-01-31T04:44:59.522Z,39.20
2019-01-31T04:47:29.029Z,40.23
2019-01-31T04:49:58.550Z,36.80
2019-01-31T04:52:28.051Z,38.40
2019-01-31T04:54:57.571Z,35.50
2019-01-31T04:57:27.072Z,36.20
2019-01-31T04:59:56.603Z,33.90
2019-01-31T05:02:26.127Z,33.60
2019-01-31T05:04:55.595Z,31.17
2019-01-31T05:07:25.161Z,37.00
2019-01-31T05:09:54.659Z,29.60
2019-01-31T05:12:24.124Z,30.20
2019-01-31T05:14:53.616Z,32.30
2019-01-31T05:17:23.132Z,31.50
2019-01-31T05:19:52.645Z,31.83
2019-01-31T05:22:22.114Z,29.37
2019-01-31T05:24:51.641Z,35.23
2019-01-31T05:27:21.350Z,29.87
2019-01-31T05:29:50.862Z,34.83
2019-01-31T05:32:20.401Z,36.60
2019-01-31T05:34:49.901Z,36.80
2019-01-31T05:37:19.410Z,32.33
2019-01-31T05:39:48.972Z,37.47
2019-01-31T05:42:18.488Z,40.37
2019-01-31T05:44:48.002Z,35.50
2019-01-31T05:47:17.515Z,34.07
2019-01-31T05:49:47.089Z,34.00
2019-01-31T05:52:16.570Z,32.00
2019-01-31T05:54:46.030Z,32.40
2019-01-31T05:57:15.540Z,34.30
2019-01-31T05:59:45.072Z,33.33
2019-01-31T06:02:14.595Z,32.57
2019-01-31T06:04:44.086Z,28.80
2019-01-31T06:07:13.623Z,28.30
2019-01-31T06:09:43.126Z,37.70
2019-01-31T06:12:12.634Z,40.00
2019-01-31T06:14:42.165Z,39.97
2019-01-31T06:17:11.714Z,37.80
2019-01-31T06:19:41.206Z,36.47
2019-01-31T06:22:10.706Z,39.97
2019-01-31T06:24:40.215Z,32.17
2019-01-31T06:27:10.118Z,34.93
2019-01-31T06:29:39.634Z,34.47
2019-01-31T06:32:09.170Z,33.43
2019-01-31T06:34:41.015Z,37.10
2019-01-31T06:37:10.699Z,34.97
2019-01-31T06:39:40.207Z,35.50
2019-01-31T06:42:09.762Z,39.23
2019-01-31T06:44:39.294Z,30.20
2019-01-31T06:47:09.151Z,36.40
2019-01-31T06:49:38.639Z,35.73
2019-01-31T06:52:08.166Z,32.20
2019-01-31T06:54:37.652Z,36.77
2019-01-31T06:57:07.211Z,33.40
2019-01-31T06:59:36.726Z,33.87
2019-01-31T07:02:06.250Z,29.90
2019-01-31T07:04:35.788Z,34.30
2019-01-31T07:07:05.306Z,36.23
2019-01-31T07:09:34.814Z,31.13
2019-01-31T07:12:04.293Z,36.57
2019-01-31T07:14:33.783Z,32.57
2019-01-31T07:17:03.291Z,32.50
2019-01-31T07:19:32.787Z,34.17
2019-01-31T07:22:02.322Z,32.97
2019-01-31T07:24:31.798Z,33.20
2019-01-31T07:27:01.491Z,35.07
2019-01-31T07:29:30.992Z,29.23
2019-01-31T07:32:00.486Z,25.40
2019-01-31T07:34:29.987Z,28.00
2019-01-31T07:36:59.586Z,29.90
2019-01-31T07:39:29.079Z,28.93
2019-01-31T07:41:58.612Z,25.77
2019-01-31T07:44:28.438Z,25.37
2019-01-31T07:46:57.968Z,22.73
2019-01-31T07:49:28.400Z,22.77
2019-01-31T07:51:58.291Z,23.10
2019-01-31T07:54:27.824Z,21.87
2019-01-31T07:56:57.302Z,19.13
2019-01-31T07:59:26.801Z,20.00
2019-01-31T08:01:56.295Z,18.43
2019-01-31T08:04:25.799Z,19.23
2019-01-31T08:06:55.353Z,21.90
2019-01-31T08:09:24.860Z,20.53
2019-01-31T08:11:54.310Z,18.47
2019-01-31T08:14:23.861Z,20.73
2019-01-31T08:16:53.433Z,19.03
2019-01-31T08:19:23.003Z,20.33
2019-01-31T08:21:52.556Z,18.80
2019-01-31T08:24:22.136Z,18.27
2019-01-31T08:26:51.709Z,17.33
2019-01-31T08:29:21.315Z,15.30
2019-01-31T08:31:50.783Z,17.40
2019-01-31T08:34:20.298Z,17.07
2019-01-31T08:36:49.798Z,13.27
2019-01-31T08:39:19.353Z,19.30
2019-01-31T08:41:48.828Z,12.30
2019-01-31T08:44:18.311Z,15.37
2019-01-31T08:46:48.259Z,14.07
2019-01-31T08:49:18.215Z,16.47
2019-01-31T08:51:47.758Z,16.03
2019-01-31T08:54:17.233Z,13.00
2019-01-31T08:56:46.915Z,13.63
2019-01-31T08:59:16.442Z,16.73
2019-01-31T09:01:46.204Z,12.97
2019-01-31T09:04:15.698Z,13.93
2019-01-31T09:06:45.219Z,15.97
2019-01-31T09:09:15.362Z,15.40
2019-01-31T09:11:44.887Z,16.20
2019-01-31T09:14:14.395Z,14.03
2019-01-31T09:16:43.912Z,12.17
2019-01-31T09:19:16.262Z,13.20
2019-01-31T09:22:13.669Z,15.70
2019-01-31T09:25:07.854Z,18.03
2019-01-31T09:28:02.972Z,20.63
2019-01-31T09:31:02.228Z,14.23
2019-01-31T09:33:52.861Z,17.07
2019-01-31T09:37:04.646Z,14.03
2019-01-31T09:39:50.691Z,17.00
2019-01-31T09:42:57.835Z,15.57
2019-01-31T09:46:01.959Z,15.10
2019-01-31T09:49:39.683Z,16.10
2019-01-31T09:52:49.390Z,15.17
2019-01-31T09:56:06.213Z,15.30
2019-01-31T09:59:13.893Z,15.00
2019-01-31T10:02:40.494Z,13.80
2019-01-31T10:05:34.423Z,15.27
2019-01-31T10:08:43.785Z,13.90
2019-01-31T10:11:53.065Z,13.67
2019-01-31T10:14:49.677Z,13.60
2019-01-31T10:17:51.060Z,12.00
2019-01-31T10:20:30.198Z,12.53
2019-01-31T10:23:28.066Z,18.57
2019-01-31T10:26:42.379Z,16.30
2019-01-31T10:29:41.695Z,13.23
2019-01-31T10:32:38.220Z,16.53
2019-01-31T10:35:35.867Z,14.50
2019-01-31T10:38:37.633Z,14.73
2019-01-31T10:41:36.961Z,16.10
2019-01-31T10:44:46.062Z,15.30
2019-01-31T10:47:58.318Z,13.70
2019-01-31T10:51:00.268Z,16.80
2019-01-31T10:54:10.021Z,18.83
2019-01-31T10:57:01.266Z,13.27
2019-01-31T11:00:01.573Z,14.63
2019-01-31T11:03:07.689Z,14.13
2019-01-31T11:06:14.555Z,15.50
2019-01-31T11:09:15.955Z,11.60
2019-01-31T11:12:26.254Z,13.97
2019-01-31T11:15:45.376Z,12.37
2019-01-31T11:18:44.813Z,14.27
2019-01-31T11:21:51.260Z,12.70
2019-01-31T11:25:14.131Z,13.63
2019-01-31T11:28:14.899Z,11.83
2019-01-31T11:30:54.353Z,11.60
2019-01-31T11:34:00.279Z,13.50
2019-01-31T11:37:12.521Z,11.00
2019-01-31T11:40:14.445Z,12.23
2019-01-31T11:43:35.857Z,11.40
2019-01-31T11:46:55.428Z,9.97
2019-01-31T11:49:57.658Z,11.43
2019-01-31T11:53:01.176Z,13.30
2019-01-31T11:56:12.981Z,12.40
2019-01-31T11:59:05.055Z,12.07
2019-01-31T12:01:35.245Z,10.40
2019-01-31T12:04:08.497Z,11.63
2019-01-31T12:06:38.029Z,10.80
2019-01-31T12:09:12.317Z,11.63
2019-01-31T12:11:41.959Z,14.73
2019-01-31T12:14:11.486Z,26.57
2019-01-31T12:16:41.220Z,18.70
2019-01-31T12:19:10.894Z,32.73
2019-01-31T12:21:40.602Z,11.53
2019-01-31T12:24:16.189Z,11.70
2019-01-31T12:26:41.357Z,14.90
2019-01-31T12:29:11.241Z,12.23
2019-01-31T12:31:44.917Z,12.77
2019-01-31T12:34:14.987Z,9.93
2019-01-31T12:36:44.914Z,10.00
2019-01-31T12:39:14.730Z,8.13
2019-01-31T12:41:44.565Z,6.90
2019-01-31T12:44:21.623Z,6.90
2019-01-31T12:46:51.185Z,6.70
2019-01-31T12:49:28.403Z,7.07
2019-01-31T12:51:58.083Z,6.67
2019-01-31T12:54:30.437Z,10.83
2019-01-31T12:56:59.926Z,11.83
2019-01-31T12:59:29.469Z,8.03
2019-01-31T13:01:58.937Z,9.53
2019-01-31T13:04:28.492Z,10.07
2019-01-31T13:06:58.251Z,7.10
2019-01-31T13:09:28.346Z,12.50
2019-01-31T13:11:58.274Z,15.17
2019-01-31T13:14:28.556Z,11.27
2019-01-31T13:16:58.458Z,8.93
2019-01-31T13:19:27.996Z,9.17
2019-01-31T13:22:02.483Z,8.27
2019-01-31T13:24:32.893Z,9.97
2019-01-31T13:27:02.709Z,11.30
2019-01-31T13:29:32.215Z,15.57
2019-01-31T13:32:10.559Z,14.90
2019-01-31T13:34:46.126Z,10.30
2019-01-31T13:37:15.999Z,11.00
2019-01-31T13:39:45.812Z,12.93
2019-01-31T13:42:15.538Z,8.10
2019-01-31T13:44:45.005Z,9.23
2019-01-31T13:47:14.720Z,6.37
2019-01-31T13:49:44.218Z,9.17
2019-01-31T13:52:13.819Z,7.37
2019-01-31T13:54:43.314Z,6.40
2019-01-31T13:57:12.800Z,6.17
2019-01-31T13:59:42.280Z,5.27
2019-01-31T14:02:11.892Z,5.43
2019-01-31T14:04:41.409Z,7.30
2019-01-31T14:07:10.979Z,4.97
2019-01-31T14:09:40.468Z,6.30
2019-01-31T14:12:09.937Z,8.17
2019-01-31T14:14:39.422Z,5.23
2019-01-31T14:17:08.932Z,4.10
2019-01-31T14:19:38.432Z,5.67
2019-01-31T14:22:07.933Z,5.20
2019-01-31T14:24:37.505Z,6.33
2019-01-31T14:27:07.064Z,3.70
2019-01-31T14:29:36.549Z,7.47
2019-01-31T14:32:06.355Z,3.80
2019-01-31T14:34:35.868Z,7.93
2019-01-31T14:37:05.974Z,6.57
2019-01-31T14:39:35.539Z,6.57
2019-01-31T14:42:05.206Z,5.37
2019-01-31T14:44:34.769Z,6.23
2019-01-31T14:47:04.283Z,7.07
2019-01-31T14:49:33.883Z,5.17
2019-01-31T14:52:03.427Z,5.93
2019-01-31T14:54:32.882Z,4.50
2019-01-31T14:57:02.432Z,5.80
2019-01-31T14:59:31.911Z,5.57
2019-01-31T15:02:01.402Z,6.50
2019-01-31T15:04:30.919Z,4.63
2019-01-31T15:07:00.463Z,5.47
2019-01-31T15:09:29.947Z,6.03
2019-01-31T15:11:59.676Z,5.67
2019-01-31T15:14:32.001Z,8.60
2019-01-31T15:17:00.331Z,10.43
2019-01-31T15:19:29.891Z,7.37
2019-01-31T15:21:59.380Z,6.60
2019-01-31T15:24:28.899Z,7.10
2019-01-31T15:26:58.443Z,9.77
2019-01-31T15:29:37.753Z,8.47
2019-01-31T15:32:07.630Z,7.33
2019-01-31T15:34:39.417Z,7.93
2019-01-31T15:37:10.101Z,8.70
2019-01-31T15:39:40.134Z,5.93
2019-01-31T15:42:09.620Z,7.87
2019-01-31T15:44:43.347Z,11.33
2019-01-31T15:47:10.278Z,14.37
2019-01-31T15:49:39.838Z,8.67
2019-01-31T15:52:09.429Z,20.23
2019-01-31T15:54:38.937Z,22.17
2019-01-31T15:57:16.440Z,33.90
2019-01-31T15:59:39.661Z,32.70
2019-01-31T16:02:10.040Z,45.43
2019-01-31T16:04:40.542Z,20.83
2019-01-31T16:07:10.139Z,12.20
2019-01-31T16:09:40.880Z,9.37
2019-01-31T16:12:11.819Z,7.67
2019-01-31T16:14:41.597Z,9.37
2019-01-31T16:17:11.075Z,15.20
2019-01-31T16:19:40.605Z,7.53
2019-01-31T16:22:10.129Z,9.00
2019-01-31T16:24:39.790Z,7.83
2019-01-31T16:27:09.432Z,8.10
2019-01-31T16:29:38.918Z,7.97
2019-01-31T16:32:08.517Z,6.23
2019-01-31T16:34:38.005Z,8.57
2019-01-31T16:37:07.558Z,7.77
2019-01-31T16:39:37.032Z,5.73
2019-01-31T16:42:06.555Z,10.03
2019-01-31T16:44:36.030Z,9.13
2019-01-31T16:47:05.881Z,4.57
2019-01-31T16:49:35.463Z,8.67
2019-01-31T16:52:06.321Z,7.90
2019-01-31T16:54:35.807Z,11.30
2019-01-31T16:57:06.956Z,9.53
2019-01-31T16:59:36.427Z,15.90
2019-01-31T17:02:06.142Z,18.63
2019-01-31T17:04:35.661Z,12.83
2019-01-31T17:07:05.350Z,10.10
2019-01-31T17:09:34.870Z,6.23
2019-01-31T17:12:04.497Z,6.97
2019-01-31T17:14:33.991Z,7.90
2019-01-31T17:17:03.473Z,7.80
2019-01-31T17:19:32.978Z,5.90
2019-01-31T17:22:02.479Z,6.33
2019-01-31T17:24:32.040Z,6.70
2019-01-31T17:27:01.667Z,7.50
2019-01-31T17:29:31.201Z,7.67
2019-01-31T17:32:00.687Z,8.73
2019-01-31T17:34:30.325Z,11.03
2019-01-31T17:36:59.827Z,7.77
2019-01-31T17:39:29.326Z,9.13
2019-01-31T17:41:58.831Z,9.63
2019-01-31T17:44:28.364Z,6.80
2019-01-31T17:46:57.850Z,7.23
2019-01-31T17:49:27.351Z,8.67
2019-01-31T17:51:56.837Z,8.57
2019-01-31T17:54:26.402Z,7.90
2019-01-31T17:56:55.878Z,6.73
2019-01-31T17:59:25.390Z,7.57
2019-01-31T18:01:55.535Z,5.87
2019-01-31T18:04:25.203Z,8.10
2019-01-31T18:06:54.735Z,7.13
2019-01-31T18:09:24.223Z,9.30
2019-01-31T18:11:53.834Z,7.93
2019-01-31T18:14:23.296Z,5.27
2019-01-31T18:16:52.794Z,5.17
2019-01-31T18:19:22.290Z,8.97
2019-01-31T18:21:51.830Z,7.37
2019-01-31T18:24:21.302Z,6.33
2019-01-31T18:26:50.785Z,5.73
2019-01-31T18:29:20.398Z,6.40
2019-01-31T18:31:49.898Z,8.23
2019-01-31T18:34:19.463Z,8.77
2019-01-31T18:36:48.935Z,8.87
2019-01-31T18:39:18.511Z,8.97
2019-01-31T18:41:48.018Z,6.37
2019-01-31T18:44:17.503Z,9.00
2019-01-31T18:46:47.031Z,7.37
2019-01-31T18:49:16.559Z,6.93
2019-01-31T18:51:46.049Z,7.63
2019-01-31T18:54:19.316Z,5.30
2019-01-31T18:56:49.247Z,7.70
2019-01-31T18:59:18.719Z,7.33
2019-01-31T19:01:48.231Z,6.63
2019-01-31T19:04:17.714Z,9.90
2019-01-31T19:06:47.204Z,6.70
2019-01-31T19:09:16.690Z,5.97
2019-01-31T19:11:46.193Z,6.70
2019-01-31T19:14:15.705Z,7.53
2019-01-31T19:16:45.223Z,7.83
2019-01-31T19:19:14.728Z,9.27
2019-01-31T19:21:44.225Z,7.73
2019-01-31T19:24:13.762Z,6.13
2019-01-31T19:26:43.286Z,9.67
2019-01-31T19:29:12.805Z,6.93
2019-01-31T19:31:42.315Z,6.00
2019-01-31T19:34:11.807Z,7.67
2019-01-31T19:36:41.327Z,7.53
2019-01-31T19:39:16.146Z,7.77
2019-01-31T19:41:45.642Z,8.83
2019-01-31T19:44:15.167Z,8.20
2019-01-31T19:46:44.851Z,7.27
2019-01-31T19:49:14.336Z,5.60
2019-01-31T19:51:43.855Z,7.37
2019-01-31T19:54:13.344Z,6.87
2019-01-31T19:56:42.809Z,5.37
2019-01-31T19:59:12.311Z,6.77
2019-01-31T20:01:41.212Z,7.40
2019-01-31T20:04:10.709Z,7.60
2019-01-31T20:06:40.196Z,7.17
2019-01-31T20:09:19.344Z,5.63
2019-01-31T20:11:48.875Z,7.30
2019-01-31T20:14:18.424Z,5.73
2019-01-31T20:16:47.944Z,5.30
2019-01-31T20:19:17.447Z,7.65
2019-01-31T20:21:46.983Z,6.83
2019-01-31T20:24:16.478Z,5.77
2019-01-31T20:26:45.955Z,6.97
2019-01-31T20:29:15.618Z,7.13
2019-01-31T20:31:45.139Z,6.13
2019-01-31T20:34:14.664Z,6.43
2019-01-31T20:36:44.174Z,7.20
2019-01-31T20:39:13.706Z,8.43
2019-01-31T20:41:53.445Z,8.40
2019-01-31T20:44:14.360Z,6.97
2019-01-31T20:46:43.859Z,5.63
2019-01-31T20:49:13.338Z,8.10
2019-01-31T20:51:42.966Z,6.80
2019-01-31T20:54:12.471Z,7.17
2019-01-31T20:56:41.960Z,7.17
2019-01-31T20:59:11.435Z,8.03
2019-01-31T21:01:40.961Z,6.57
2019-01-31T21:04:10.479Z,10.53
2019-01-31T21:06:41.535Z,8.33
2019-01-31T21:09:11.188Z,8.73
2019-01-31T21:11:40.797Z,5.73
2019-01-31T21:14:10.225Z,5.47
2019-01-31T21:16:51.074Z,5.43
2019-01-31T21:19:10.891Z,5.83
2019-01-31T21:21:40.392Z,5.80
2019-01-31T21:24:09.857Z,6.40
2019-01-31T21:26:39.451Z,5.30
2019-01-31T21:29:09.096Z,6.80
2019-01-31T21:31:38.601Z,6.67
2019-01-31T21:34:08.213Z,8.03
2019-01-31T21:36:37.916Z,6.47
2019-01-31T21:39:09.995Z,6.13
2019-01-31T21:41:39.487Z,4.90
2019-01-31T21:44:08.949Z,5.63
2019-01-31T21:46:38.489Z,6.10
2019-01-31T21:49:08.009Z,6.10
2019-01-31T21:51:37.483Z,6.40
2019-01-31T21:54:07.244Z,5.57
2019-01-31T21:56:36.788Z,6.70
2019-01-31T21:59:08.815Z,5.03
2019-01-31T22:01:37.462Z,7.07
2019-01-31T22:04:06.975Z,5.07
2019-01-31T22:06:38.637Z,7.17
2019-01-31T22:09:10.198Z,5.20
2019-01-31T22:11:39.709Z,4.50
2019-01-31T22:14:09.217Z,4.23
2019-01-31T22:16:38.732Z,4.70
2019-01-31T22:19:08.215Z,6.07
2019-01-31T22:21:37.734Z,5.47
2019-01-31T22:24:07.323Z,5.87
2019-01-31T22:26:36.827Z,4.97
2019-01-31T22:29:08.250Z,6.07
2019-01-31T22:31:37.614Z,6.03
2019-01-31T22:34:07.141Z,7.50
2019-01-31T22:36:36.911Z,6.13
2019-01-31T22:39:08.929Z,4.63
2019-01-31T22:41:38.490Z,4.93
2019-01-31T22:44:07.971Z,4.80
2019-01-31T22:46:37.449Z,5.20
2019-01-31T22:49:06.970Z,5.67
2019-01-31T22:51:37.567Z,5.97
2019-01-31T22:54:07.427Z,5.20
2019-01-31T22:56:36.998Z,5.00
2019-01-31T22:59:06.521Z,5.70
2019-01-31T23:01:42.975Z,7.33
2019-01-31T23:04:12.499Z,7.80
2019-01-31T23:06:41.983Z,5.90
2019-01-31T23:09:13.163Z,8.40
2019-01-31T23:11:42.678Z,5.83
2019-01-31T23:14:12.255Z,5.23
2019-01-31T23:16:41.773Z,6.70
2019-01-31T23:19:11.239Z,6.00
2019-01-31T23:21:40.734Z,5.77
2019-01-31T23:24:10.450Z,8.03
2019-01-31T23:26:40.034Z,6.63
2019-01-31T23:29:09.797Z,5.10
2019-01-31T23:31:39.321Z,6.43
2019-01-31T23:34:08.832Z,6.83
2019-01-31T23:36:38.353Z,11.37
2019-01-31T23:39:10.855Z,5.60
2019-01-31T23:41:40.471Z,7.57
2019-01-31T23:44:09.981Z,7.77
2019-01-31T23:46:39.494Z,4.87
2019-01-31T23:49:09.034Z,6.53
2019-01-31T23:51:38.598Z,7.53
2019-01-31T23:54:08.296Z,7.07
2019-01-31T23:56:37.758Z,6.43
2019-01-31T23:59:07.491Z,7.63
